sensor_id;sensor_type;location;lat;lon;timestamp;temperature;humidity
74934;DHT22;63499;53.232;7.492;2022-11-20T00:01:47;1.40;99.90
74934;DHT22;63499;53.232;7.492;2022-11-20T00:04:13;1.40;99.90
74934;DHT22;63499;53.232;7.492;2022-11-20T00:06:39;1.40;99.90
74934;DHT22;63499;53.232;7.492;2022-11-20T00:09:05;1.40;99.90
74934;DHT22;63499;53.232;7.492;2022-11-20T00:11:32;1.40;99.90
74934;DHT22;63499;53.232;7.492;2022-11-20T00:13:59;1.40;99.90
74934;DHT22;63499;53.232;7.492;2022-11-20T00:16:26;1.50;99.90
74934;DHT22;63499;53.232;7.492;2022-11-20T00:18:53;1.50;99.90
74934;DHT22;63499;53.232;7.492;2022-11-20T00:21:20;1.50;99.90
74934;DHT22;63499;53.232;7.492;2022-11-20T00:23:47;1.50;99.90
74934;DHT22;63499;53.232;7.492;2022-11-20T00:26:14;1.40;99.90
74934;DHT22;63499;53.232;7.492;2022-11-20T00:28:41;1.40;99.90
74934;DHT22;63499;53.232;7.492;2022-11-20T00:31:08;1.40;99.90
74934;DHT22;63499;53.232;7.492;2022-11-20T00:33:34;1.40;99.90
74934;DHT22;63499;53.232;7.492;2022-11-20T00:36:01;1.40;99.90
74934;DHT22;63499;53.232;7.492;2022-11-20T00:38:27;1.40;99.90
74934;DHT22;63499;53.232;7.492;2022-11-20T00:41:00;1.40;99.90
74934;DHT22;63499;53.232;7.492;2022-11-20T00:43:27;1.40;99.90
74934;DHT22;63499;53.232;7.492;2022-11-20T00:45:57;1.40;99.90
74934;DHT22;63499;53.232;7.492;2022-11-20T00:48:23;1.40;99.90
74934;DHT22;63499;53.232;7.492;2022-11-20T00:50:49;1.40;99.90
74934;DHT22;63499;53.232;7.492;2022-11-20T00:53:15;1.40;99.90
74934;DHT22;63499;53.232;7.492;2022-11-20T00:55:41;1.40;99.90
74934;DHT22;63499;53.232;7.492;2022-11-20T00:58:08;1.40;99.90
74934;DHT22;63499;53.232;7.492;2022-11-20T01:00:35;1.50;99.90
74934;DHT22;63499;53.232;7.492;2022-11-20T01:03:01;1.50;99.90
74934;DHT22;63499;53.232;7.492;2022-11-20T01:05:27;1.50;99.90
74934;DHT22;63499;53.232;7.492;2022-11-20T01:07:53;1.50;99.90
74934;DHT22;63499;53.232;7.492;2022-11-20T01:10:19;1.50;99.90
74934;DHT22;63499;53.232;7.492;2022-11-20T01:12:45;1.50;99.90
74934;DHT22;63499;53.232;7.492;2022-11-20T01:15:33;1.50;99.90
74934;DHT22;63499;53.232;7.492;2022-11-20T01:17:59;1.50;99.90
74934;DHT22;63499;53.232;7.492;2022-11-20T01:20:25;1.50;99.90
74934;DHT22;63499;53.232;7.492;2022-11-20T01:22:51;1.50;99.90
74934;DHT22;63499;53.232;7.492;2022-11-20T01:25:17;1.50;99.90
74934;DHT22;63499;53.232;7.492;2022-11-20T01:27:43;1.60;99.90
74934;DHT22;63499;53.232;7.492;2022-11-20T01:30:09;1.60;99.90
74934;DHT22;63499;53.232;7.492;2022-11-20T01:32:35;1.60;99.90
74934;DHT22;63499;53.232;7.492;2022-11-20T01:35:01;1.70;99.90
74934;DHT22;63499;53.232;7.492;2022-11-20T01:37:28;1.70;99.90
74934;DHT22;63499;53.232;7.492;2022-11-20T01:39:54;1.60;99.90
74934;DHT22;63499;53.232;7.492;2022-11-20T01:42:20;1.60;99.90
74934;DHT22;63499;53.232;7.492;2022-11-20T01:47:49;1.70;99.90
74934;DHT22;63499;53.232;7.492;2022-11-20T01:55:18;1.60;99.90
74934;DHT22;63499;53.232;7.492;2022-11-20T01:57:45;1.60;99.90
74934;DHT22;63499;53.232;7.492;2022-11-20T02:00:12;1.60;99.90
74934;DHT22;63499;53.232;7.492;2022-11-20T02:02:40;1.70;99.90
74934;DHT22;63499;53.232;7.492;2022-11-20T02:07:59;1.70;99.90
74934;DHT22;63499;53.232;7.492;2022-11-20T02:10:26;1.70;99.90
74934;DHT22;63499;53.232;7.492;2022-11-20T02:12:53;1.70;99.90
74934;DHT22;63499;53.232;7.492;2022-11-20T02:15:37;1.70;99.90
74934;DHT22;63499;53.232;7.492;2022-11-20T02:18:03;1.80;99.90
74934;DHT22;63499;53.232;7.492;2022-11-20T02:20:31;1.70;99.90
74934;DHT22;63499;53.232;7.492;2022-11-20T02:22:58;1.70;99.90
74934;DHT22;63499;53.232;7.492;2022-11-20T02:25:25;1.70;99.90
74934;DHT22;63499;53.232;7.492;2022-11-20T02:27:52;1.60;99.90
74934;DHT22;63499;53.232;7.492;2022-11-20T02:30:18;1.60;99.90
74934;DHT22;63499;53.232;7.492;2022-11-20T02:32:44;1.50;99.90
74934;DHT22;63499;53.232;7.492;2022-11-20T02:35:55;1.50;99.90
74934;DHT22;63499;53.232;7.492;2022-11-20T02:37:58;1.50;99.90
74934;DHT22;63499;53.232;7.492;2022-11-20T02:40:25;1.50;99.90
74934;DHT22;63499;53.232;7.492;2022-11-20T02:42:52;1.40;99.90
74934;DHT22;63499;53.232;7.492;2022-11-20T02:45:18;1.50;99.90
74934;DHT22;63499;53.232;7.492;2022-11-20T02:47:44;1.50;99.90
74934;DHT22;63499;53.232;7.492;2022-11-20T02:50:10;1.50;99.90
74934;DHT22;63499;53.232;7.492;2022-11-20T02:52:36;1.50;99.90
74934;DHT22;63499;53.232;7.492;2022-11-20T02:55:02;1.40;99.90
74934;DHT22;63499;53.232;7.492;2022-11-20T02:57:29;1.50;99.90
74934;DHT22;63499;53.232;7.492;2022-11-20T02:59:55;1.40;99.90
74934;DHT22;63499;53.232;7.492;2022-11-20T03:02:21;1.40;99.90
74934;DHT22;63499;53.232;7.492;2022-11-20T03:04:47;1.40;99.90
74934;DHT22;63499;53.232;7.492;2022-11-20T03:07:13;1.40;99.90
74934;DHT22;63499;53.232;7.492;2022-11-20T03:09:39;1.40;99.90
74934;DHT22;63499;53.232;7.492;2022-11-20T03:12:05;1.40;99.90
74934;DHT22;63499;53.232;7.492;2022-11-20T03:14:32;1.40;99.90
74934;DHT22;63499;53.232;7.492;2022-11-20T03:16:58;1.50;99.90
74934;DHT22;63499;53.232;7.492;2022-11-20T03:19:24;1.50;99.90
74934;DHT22;63499;53.232;7.492;2022-11-20T03:21:50;1.60;99.90
74934;DHT22;63499;53.232;7.492;2022-11-20T03:24:16;1.50;99.90
74934;DHT22;63499;53.232;7.492;2022-11-20T03:26:44;1.50;99.90
74934;DHT22;63499;53.232;7.492;2022-11-20T03:29:10;1.50;99.90
74934;DHT22;63499;53.232;7.492;2022-11-20T03:31:37;1.50;99.90
74934;DHT22;63499;53.232;7.492;2022-11-20T03:34:06;1.40;99.90
74934;DHT22;63499;53.232;7.492;2022-11-20T03:36:32;1.40;99.90
74934;DHT22;63499;53.232;7.492;2022-11-20T03:38:59;1.40;99.90
74934;DHT22;63499;53.232;7.492;2022-11-20T03:41:27;1.40;99.90
74934;DHT22;63499;53.232;7.492;2022-11-20T03:43:57;1.30;99.90
74934;DHT22;63499;53.232;7.492;2022-11-20T03:46:23;1.30;99.90
74934;DHT22;63499;53.232;7.492;2022-11-20T03:48:50;1.30;99.90
74934;DHT22;63499;53.232;7.492;2022-11-20T03:51:17;1.30;99.90
74934;DHT22;63499;53.232;7.492;2022-11-20T03:53:44;1.30;99.90
74934;DHT22;63499;53.232;7.492;2022-11-20T03:56:11;1.30;99.90
74934;DHT22;63499;53.232;7.492;2022-11-20T03:58:37;1.30;99.90
74934;DHT22;63499;53.232;7.492;2022-11-20T04:01:08;1.30;99.90
74934;DHT22;63499;53.232;7.492;2022-11-20T04:03:35;1.40;99.90
74934;DHT22;63499;53.232;7.492;2022-11-20T04:06:05;1.40;99.90
74934;DHT22;63499;53.232;7.492;2022-11-20T04:08:31;1.40;99.90
74934;DHT22;63499;53.232;7.492;2022-11-20T04:11:07;1.40;99.90
74934;DHT22;63499;53.232;7.492;2022-11-20T04:13:33;1.50;99.90
74934;DHT22;63499;53.232;7.492;2022-11-20T04:15:59;1.50;99.90
74934;DHT22;63499;53.232;7.492;2022-11-20T04:18:25;1.50;99.90
74934;DHT22;63499;53.232;7.492;2022-11-20T04:20:51;1.40;99.90
74934;DHT22;63499;53.232;7.492;2022-11-20T04:23:17;1.40;99.90
74934;DHT22;63499;53.232;7.492;2022-11-20T04:25:43;1.40;99.90
74934;DHT22;63499;53.232;7.492;2022-11-20T04:28:10;1.30;99.90
74934;DHT22;63499;53.232;7.492;2022-11-20T04:30:36;1.30;99.90
74934;DHT22;63499;53.232;7.492;2022-11-20T04:33:02;1.30;99.90
74934;DHT22;63499;53.232;7.492;2022-11-20T04:35:28;1.40;99.90
74934;DHT22;63499;53.232;7.492;2022-11-20T04:37:54;1.40;99.90
74934;DHT22;63499;53.232;7.492;2022-11-20T04:40:20;1.30;99.90
74934;DHT22;63499;53.232;7.492;2022-11-20T04:42:46;1.40;99.90
74934;DHT22;63499;53.232;7.492;2022-11-20T04:45:12;1.40;99.90
74934;DHT22;63499;53.232;7.492;2022-11-20T04:47:38;1.40;99.90
74934;DHT22;63499;53.232;7.492;2022-11-20T04:50:04;1.50;99.90
74934;DHT22;63499;53.232;7.492;2022-11-20T04:52:30;1.40;99.90
74934;DHT22;63499;53.232;7.492;2022-11-20T04:54:56;1.40;99.90
74934;DHT22;63499;53.232;7.492;2022-11-20T04:57:23;1.40;99.90
74934;DHT22;63499;53.232;7.492;2022-11-20T04:59:51;1.40;99.90
74934;DHT22;63499;53.232;7.492;2022-11-20T05:02:17;1.40;99.90
74934;DHT22;63499;53.232;7.492;2022-11-20T05:04:43;1.40;99.90
74934;DHT22;63499;53.232;7.492;2022-11-20T05:07:09;1.40;99.90
74934;DHT22;63499;53.232;7.492;2022-11-20T05:09:36;1.30;99.90
74934;DHT22;63499;53.232;7.492;2022-11-20T05:12:02;1.40;99.90
74934;DHT22;63499;53.232;7.492;2022-11-20T05:14:29;1.30;99.90
74934;DHT22;63499;53.232;7.492;2022-11-20T05:16:55;1.40;99.90
74934;DHT22;63499;53.232;7.492;2022-11-20T05:19:21;1.40;99.90
74934;DHT22;63499;53.232;7.492;2022-11-20T05:21:47;1.40;99.90
74934;DHT22;63499;53.232;7.492;2022-11-20T05:24:13;1.50;99.90
74934;DHT22;63499;53.232;7.492;2022-11-20T05:26:39;1.50;99.90
74934;DHT22;63499;53.232;7.492;2022-11-20T05:29:05;1.50;99.90
74934;DHT22;63499;53.232;7.492;2022-11-20T05:31:31;1.50;99.90
74934;DHT22;63499;53.232;7.492;2022-11-20T05:33:58;1.50;99.90
74934;DHT22;63499;53.232;7.492;2022-11-20T05:36:24;1.50;99.90
74934;DHT22;63499;53.232;7.492;2022-11-20T05:38:50;1.50;99.90
74934;DHT22;63499;53.232;7.492;2022-11-20T05:41:17;1.50;99.90
74934;DHT22;63499;53.232;7.492;2022-11-20T05:43:44;1.50;99.90
74934;DHT22;63499;53.232;7.492;2022-11-20T05:46:12;1.50;99.90
74934;DHT22;63499;53.232;7.492;2022-11-20T05:48:39;1.50;99.90
74934;DHT22;63499;53.232;7.492;2022-11-20T05:51:06;1.50;99.90
74934;DHT22;63499;53.232;7.492;2022-11-20T05:53:33;1.50;99.90
74934;DHT22;63499;53.232;7.492;2022-11-20T05:56:04;1.50;99.90
74934;DHT22;63499;53.232;7.492;2022-11-20T05:58:30;1.50;99.90
74934;DHT22;63499;53.232;7.492;2022-11-20T06:01:04;1.50;99.90
74934;DHT22;63499;53.232;7.492;2022-11-20T06:03:34;1.50;99.90
74934;DHT22;63499;53.232;7.492;2022-11-20T06:06:02;1.50;99.90
74934;DHT22;63499;53.232;7.492;2022-11-20T06:08:28;1.40;99.90
74934;DHT22;63499;53.232;7.492;2022-11-20T06:10:54;1.40;99.90
74934;DHT22;63499;53.232;7.492;2022-11-20T06:13:21;1.40;99.90
74934;DHT22;63499;53.232;7.492;2022-11-20T06:15:50;1.40;99.90
74934;DHT22;63499;53.232;7.492;2022-11-20T06:18:16;1.40;99.90
74934;DHT22;63499;53.232;7.492;2022-11-20T06:20:42;1.30;99.90
74934;DHT22;63499;53.232;7.492;2022-11-20T06:23:09;1.30;99.90
74934;DHT22;63499;53.232;7.492;2022-11-20T06:25:41;1.20;99.90
74934;DHT22;63499;53.232;7.492;2022-11-20T06:28:07;1.20;99.90
74934;DHT22;63499;53.232;7.492;2022-11-20T06:30:34;1.20;99.90
74934;DHT22;63499;53.232;7.492;2022-11-20T06:33:02;1.20;99.90
74934;DHT22;63499;53.232;7.492;2022-11-20T06:35:28;1.30;99.90
74934;DHT22;63499;53.232;7.492;2022-11-20T06:37:55;1.30;99.90
74934;DHT22;63499;53.232;7.492;2022-11-20T06:40:21;1.40;99.90
74934;DHT22;63499;53.232;7.492;2022-11-20T06:42:47;1.40;99.90
74934;DHT22;63499;53.232;7.492;2022-11-20T06:45:13;1.40;99.90
74934;DHT22;63499;53.232;7.492;2022-11-20T06:47:39;1.40;99.90
74934;DHT22;63499;53.232;7.492;2022-11-20T06:50:05;1.30;99.90
74934;DHT22;63499;53.232;7.492;2022-11-20T06:52:32;1.30;99.90
74934;DHT22;63499;53.232;7.492;2022-11-20T06:54:58;1.30;99.90
74934;DHT22;63499;53.232;7.492;2022-11-20T06:57:24;1.30;99.90
74934;DHT22;63499;53.232;7.492;2022-11-20T06:59:51;1.30;99.90
74934;DHT22;63499;53.232;7.492;2022-11-20T07:02:17;1.30;99.90
74934;DHT22;63499;53.232;7.492;2022-11-20T07:04:43;1.30;99.90
74934;DHT22;63499;53.232;7.492;2022-11-20T07:07:09;1.30;99.90
74934;DHT22;63499;53.232;7.492;2022-11-20T07:09:35;1.30;99.90
74934;DHT22;63499;53.232;7.492;2022-11-20T07:12:01;1.30;99.90
74934;DHT22;63499;53.232;7.492;2022-11-20T07:14:27;1.40;99.90
74934;DHT22;63499;53.232;7.492;2022-11-20T07:16:53;1.30;99.90
74934;DHT22;63499;53.232;7.492;2022-11-20T07:19:19;1.30;99.90
74934;DHT22;63499;53.232;7.492;2022-11-20T07:21:46;1.30;99.90
74934;DHT22;63499;53.232;7.492;2022-11-20T07:24:12;1.30;99.90
74934;DHT22;63499;53.232;7.492;2022-11-20T07:26:38;1.30;99.90
74934;DHT22;63499;53.232;7.492;2022-11-20T07:29:05;1.30;99.90
74934;DHT22;63499;53.232;7.492;2022-11-20T07:31:31;1.30;99.90
74934;DHT22;63499;53.232;7.492;2022-11-20T07:33:57;1.30;99.90
74934;DHT22;63499;53.232;7.492;2022-11-20T07:36:24;1.30;99.90
74934;DHT22;63499;53.232;7.492;2022-11-20T07:38:50;1.30;99.90
74934;DHT22;63499;53.232;7.492;2022-11-20T07:41:16;1.30;99.90
74934;DHT22;63499;53.232;7.492;2022-11-20T07:43:42;1.30;99.90
74934;DHT22;63499;53.232;7.492;2022-11-20T07:46:08;1.30;99.90
74934;DHT22;63499;53.232;7.492;2022-11-20T07:48:34;1.30;99.90
74934;DHT22;63499;53.232;7.492;2022-11-20T07:51:00;1.30;99.90
74934;DHT22;63499;53.232;7.492;2022-11-20T07:53:27;1.40;99.90
74934;DHT22;63499;53.232;7.492;2022-11-20T07:55:53;1.30;99.90
74934;DHT22;63499;53.232;7.492;2022-11-20T07:58:19;1.30;99.90
74934;DHT22;63499;53.232;7.492;2022-11-20T08:00:46;1.30;99.90
74934;DHT22;63499;53.232;7.492;2022-11-20T08:03:12;1.30;99.90
74934;DHT22;63499;53.232;7.492;2022-11-20T08:05:38;1.30;99.90
74934;DHT22;63499;53.232;7.492;2022-11-20T08:08:04;1.40;99.90
74934;DHT22;63499;53.232;7.492;2022-11-20T08:10:30;1.40;99.90
74934;DHT22;63499;53.232;7.492;2022-11-20T08:12:57;1.40;99.90
74934;DHT22;63499;53.232;7.492;2022-11-20T08:15:46;1.40;99.90
74934;DHT22;63499;53.232;7.492;2022-11-20T08:18:13;1.50;99.90
74934;DHT22;63499;53.232;7.492;2022-11-20T08:20:39;1.50;99.90
74934;DHT22;63499;53.232;7.492;2022-11-20T08:23:06;1.50;99.90
74934;DHT22;63499;53.232;7.492;2022-11-20T08:25:33;1.50;99.90
74934;DHT22;63499;53.232;7.492;2022-11-20T08:28:01;1.50;99.90
74934;DHT22;63499;53.232;7.492;2022-11-20T08:30:29;1.50;99.90
74934;DHT22;63499;53.232;7.492;2022-11-20T08:33:00;1.50;99.90
74934;DHT22;63499;53.232;7.492;2022-11-20T08:35:27;1.60;99.90
74934;DHT22;63499;53.232;7.492;2022-11-20T08:37:53;1.60;99.90
74934;DHT22;63499;53.232;7.492;2022-11-20T08:40:19;1.60;99.90
74934;DHT22;63499;53.232;7.492;2022-11-20T08:42:46;1.70;99.90
74934;DHT22;63499;53.232;7.492;2022-11-20T08:45:13;1.70;99.90
74934;DHT22;63499;53.232;7.492;2022-11-20T08:47:40;1.80;99.90
74934;DHT22;63499;53.232;7.492;2022-11-20T08:50:07;1.90;99.90
74934;DHT22;63499;53.232;7.492;2022-11-20T08:52:33;1.90;99.90
74934;DHT22;63499;53.232;7.492;2022-11-20T09:56:22;2.30;99.90
74934;DHT22;63499;53.232;7.492;2022-11-20T09:58:49;2.30;99.90
74934;DHT22;63499;53.232;7.492;2022-11-20T10:01:17;2.40;99.90
74934;DHT22;63499;53.232;7.492;2022-11-20T10:06:15;2.40;99.90
74934;DHT22;63499;53.232;7.492;2022-11-20T10:08:43;2.40;99.90
74934;DHT22;63499;53.232;7.492;2022-11-20T10:11:18;2.30;99.90
74934;DHT22;63499;53.232;7.492;2022-11-20T10:14:04;2.40;99.90
74934;DHT22;63499;53.232;7.492;2022-11-20T10:19:41;2.50;99.90
74934;DHT22;63499;53.232;7.492;2022-11-20T10:30:11;2.60;99.90
74934;DHT22;63499;53.232;7.492;2022-11-20T10:32:38;2.60;99.90
74934;DHT22;63499;53.232;7.492;2022-11-20T10:35:20;2.60;99.90
74934;DHT22;63499;53.232;7.492;2022-11-20T10:37:52;2.70;99.90
74934;DHT22;63499;53.232;7.492;2022-11-20T10:40:22;2.60;99.90
74934;DHT22;63499;53.232;7.492;2022-11-20T10:42:51;2.60;99.90
74934;DHT22;63499;53.232;7.492;2022-11-20T10:47:48;2.70;99.90
74934;DHT22;63499;53.232;7.492;2022-11-20T10:50:16;2.70;99.90
74934;DHT22;63499;53.232;7.492;2022-11-20T11:00:17;2.70;99.90
74934;DHT22;63499;53.232;7.492;2022-11-20T11:02:47;2.70;99.90
74934;DHT22;63499;53.232;7.492;2022-11-20T11:05:31;2.70;99.90
74934;DHT22;63499;53.232;7.492;2022-11-20T11:07:58;2.60;99.90
74934;DHT22;63499;53.232;7.492;2022-11-20T11:10:44;2.60;99.90
74934;DHT22;63499;53.232;7.492;2022-11-20T11:13:22;2.70;99.90
74934;DHT22;63499;53.232;7.492;2022-11-20T11:15:48;2.70;99.90
74934;DHT22;63499;53.232;7.492;2022-11-20T11:18:28;2.80;99.90
74934;DHT22;63499;53.232;7.492;2022-11-20T11:20:56;2.80;99.90
74934;DHT22;63499;53.232;7.492;2022-11-20T11:25:59;2.90;99.90
74934;DHT22;63499;53.232;7.492;2022-11-20T11:28:26;2.90;99.90
74934;DHT22;63499;53.232;7.492;2022-11-20T11:30:53;2.90;99.90
74934;DHT22;63499;53.232;7.492;2022-11-20T11:33:24;3.10;99.90
74934;DHT22;63499;53.232;7.492;2022-11-20T11:35:58;3.10;99.90
74934;DHT22;63499;53.232;7.492;2022-11-20T11:40:57;3.10;99.90
74934;DHT22;63499;53.232;7.492;2022-11-20T11:43:26;3.10;99.90
74934;DHT22;63499;53.232;7.492;2022-11-20T11:48:57;3.10;99.90
74934;DHT22;63499;53.232;7.492;2022-11-20T11:52:11;3.10;99.90
74934;DHT22;63499;53.232;7.492;2022-11-20T11:54:15;3.10;99.90
74934;DHT22;63499;53.232;7.492;2022-11-20T11:56:43;3.00;99.90
74934;DHT22;63499;53.232;7.492;2022-11-20T11:59:12;3.00;99.90
74934;DHT22;63499;53.232;7.492;2022-11-20T12:06:39;3.10;99.90
74934;DHT22;63499;53.232;7.492;2022-11-20T12:09:09;3.30;99.90
74934;DHT22;63499;53.232;7.492;2022-11-20T12:11:43;3.30;99.90
74934;DHT22;63499;53.232;7.492;2022-11-20T12:14:18;3.30;99.90
74934;DHT22;63499;53.232;7.492;2022-11-20T12:16:49;3.30;99.90
74934;DHT22;63499;53.232;7.492;2022-11-20T12:19:16;3.20;99.90
74934;DHT22;63499;53.232;7.492;2022-11-20T12:26:57;3.10;99.90
74934;DHT22;63499;53.232;7.492;2022-11-20T12:34:52;3.00;99.90
74934;DHT22;63499;53.232;7.492;2022-11-20T12:39:50;3.00;99.90
74934;DHT22;63499;53.232;7.492;2022-11-20T12:47:43;3.00;99.90
74934;DHT22;63499;53.232;7.492;2022-11-20T12:50:28;3.10;99.90
74934;DHT22;63499;53.232;7.492;2022-11-20T12:52:56;3.10;99.90
74934;DHT22;63499;53.232;7.492;2022-11-20T13:00:21;3.20;99.90
74934;DHT22;63499;53.232;7.492;2022-11-20T13:03:27;3.20;99.90
74934;DHT22;63499;53.232;7.492;2022-11-20T13:10:49;3.50;99.90
74934;DHT22;63499;53.232;7.492;2022-11-20T13:15:52;3.50;99.90
74934;DHT22;63499;53.232;7.492;2022-11-20T13:18:20;3.50;99.90
74934;DHT22;63499;53.232;7.492;2022-11-20T13:20:46;3.50;99.90
74934;DHT22;63499;53.232;7.492;2022-11-20T13:23:23;3.50;99.90
74934;DHT22;63499;53.232;7.492;2022-11-20T13:25:50;3.50;99.90
74934;DHT22;63499;53.232;7.492;2022-11-20T13:30:49;3.40;99.90
74934;DHT22;63499;53.232;7.492;2022-11-20T13:33:27;3.50;99.90
74934;DHT22;63499;53.232;7.492;2022-11-20T13:36:04;3.50;99.90
74934;DHT22;63499;53.232;7.492;2022-11-20T13:38:42;3.60;99.90
74934;DHT22;63499;53.232;7.492;2022-11-20T13:41:10;3.50;99.90
74934;DHT22;63499;53.232;7.492;2022-11-20T13:44:22;3.60;99.90
74934;DHT22;63499;53.232;7.492;2022-11-20T13:46:46;3.60;99.90
74934;DHT22;63499;53.232;7.492;2022-11-20T13:51:42;3.60;99.90
74934;DHT22;63499;53.232;7.492;2022-11-20T13:57:05;3.50;99.90
74934;DHT22;63499;53.232;7.492;2022-11-20T13:59:42;3.50;99.90
74934;DHT22;63499;53.232;7.492;2022-11-20T14:02:14;3.50;99.90
74934;DHT22;63499;53.232;7.492;2022-11-20T14:04:45;3.50;99.90
74934;DHT22;63499;53.232;7.492;2022-11-20T14:07:12;3.40;99.90
74934;DHT22;63499;53.232;7.492;2022-11-20T14:09:38;3.40;99.90
74934;DHT22;63499;53.232;7.492;2022-11-20T14:12:15;3.50;99.90
74934;DHT22;63499;53.232;7.492;2022-11-20T14:14:50;3.40;99.90
74934;DHT22;63499;53.232;7.492;2022-11-20T14:17:18;3.40;99.90
74934;DHT22;63499;53.232;7.492;2022-11-20T14:19:44;3.40;99.90
74934;DHT22;63499;53.232;7.492;2022-11-20T14:22:19;3.40;99.90
74934;DHT22;63499;53.232;7.492;2022-11-20T14:24:46;3.40;99.90
74934;DHT22;63499;53.232;7.492;2022-11-20T14:27:13;3.40;99.90
74934;DHT22;63499;53.232;7.492;2022-11-20T14:29:41;3.40;99.90
74934;DHT22;63499;53.232;7.492;2022-11-20T14:32:09;3.30;99.90
74934;DHT22;63499;53.232;7.492;2022-11-20T14:34:37;3.20;99.90
74934;DHT22;63499;53.232;7.492;2022-11-20T14:37:04;3.20;99.90
74934;DHT22;63499;53.232;7.492;2022-11-20T14:39:35;3.10;99.90
74934;DHT22;63499;53.232;7.492;2022-11-20T14:42:02;3.10;99.90
74934;DHT22;63499;53.232;7.492;2022-11-20T14:44:30;3.10;99.90
74934;DHT22;63499;53.232;7.492;2022-11-20T14:46:58;3.00;99.90
74934;DHT22;63499;53.232;7.492;2022-11-20T14:49:25;3.00;99.90
74934;DHT22;63499;53.232;7.492;2022-11-20T14:51:59;3.00;99.90
74934;DHT22;63499;53.232;7.492;2022-11-20T14:54:25;2.90;99.90
74934;DHT22;63499;53.232;7.492;2022-11-20T14:56:56;2.90;99.90
74934;DHT22;63499;53.232;7.492;2022-11-20T14:59:23;2.80;99.90
74934;DHT22;63499;53.232;7.492;2022-11-20T15:04:25;2.80;99.90
74934;DHT22;63499;53.232;7.492;2022-11-20T15:06:52;2.80;99.90
74934;DHT22;63499;53.232;7.492;2022-11-20T15:09:19;2.80;99.90
74934;DHT22;63499;53.232;7.492;2022-11-20T15:11:53;2.70;99.90
74934;DHT22;63499;53.232;7.492;2022-11-20T15:14:20;2.70;99.90
74934;DHT22;63499;53.232;7.492;2022-11-20T15:16:47;2.60;99.90
74934;DHT22;63499;53.232;7.492;2022-11-20T15:19:17;2.60;99.90
74934;DHT22;63499;53.232;7.492;2022-11-20T15:21:44;2.60;99.90
74934;DHT22;63499;53.232;7.492;2022-11-20T15:24:10;2.60;99.90
74934;DHT22;63499;53.232;7.492;2022-11-20T15:26:36;2.50;99.90
74934;DHT22;63499;53.232;7.492;2022-11-20T15:29:03;2.50;99.90
74934;DHT22;63499;53.232;7.492;2022-11-20T15:31:29;2.50;99.90
74934;DHT22;63499;53.232;7.492;2022-11-20T15:33:56;2.50;99.90
74934;DHT22;63499;53.232;7.492;2022-11-20T15:36:22;2.50;99.90
74934;DHT22;63499;53.232;7.492;2022-11-20T15:38:48;2.40;99.90
74934;DHT22;63499;53.232;7.492;2022-11-20T15:41:14;2.40;99.90
74934;DHT22;63499;53.232;7.492;2022-11-20T15:43:41;2.30;99.90
74934;DHT22;63499;53.232;7.492;2022-11-20T15:46:11;2.30;99.90
74934;DHT22;63499;53.232;7.492;2022-11-20T15:48:44;2.30;99.90
74934;DHT22;63499;53.232;7.492;2022-11-20T15:53:40;2.30;99.90
74934;DHT22;63499;53.232;7.492;2022-11-20T15:56:13;2.30;99.90
74934;DHT22;63499;53.232;7.492;2022-11-20T15:58:40;2.30;99.90
74934;DHT22;63499;53.232;7.492;2022-11-20T16:01:13;2.20;99.90
74934;DHT22;63499;53.232;7.492;2022-11-20T16:03:41;2.20;99.90
74934;DHT22;63499;53.232;7.492;2022-11-20T16:06:07;2.20;99.90
74934;DHT22;63499;53.232;7.492;2022-11-20T16:08:34;2.10;99.90
74934;DHT22;63499;53.232;7.492;2022-11-20T16:11:00;2.00;99.90
74934;DHT22;63499;53.232;7.492;2022-11-20T16:13:26;2.00;99.90
74934;DHT22;63499;53.232;7.492;2022-11-20T16:16:18;2.00;99.90
74934;DHT22;63499;53.232;7.492;2022-11-20T16:18:46;2.00;99.90
74934;DHT22;63499;53.232;7.492;2022-11-20T16:21:13;2.00;99.90
74934;DHT22;63499;53.232;7.492;2022-11-20T16:23:40;2.00;99.90
74934;DHT22;63499;53.232;7.492;2022-11-20T16:26:12;2.00;99.90
74934;DHT22;63499;53.232;7.492;2022-11-20T16:28:39;2.00;99.90
74934;DHT22;63499;53.232;7.492;2022-11-20T16:31:12;1.90;99.90
74934;DHT22;63499;53.232;7.492;2022-11-20T16:33:40;1.90;99.90
74934;DHT22;63499;53.232;7.492;2022-11-20T16:36:10;1.90;99.90
74934;DHT22;63499;53.232;7.492;2022-11-20T16:38:36;1.90;99.90
74934;DHT22;63499;53.232;7.492;2022-11-20T16:41:03;1.90;99.90
74934;DHT22;63499;53.232;7.492;2022-11-20T16:43:30;1.80;99.90
74934;DHT22;63499;53.232;7.492;2022-11-20T16:45:56;1.80;99.90
74934;DHT22;63499;53.232;7.492;2022-11-20T16:48:22;1.80;99.90
74934;DHT22;63499;53.232;7.492;2022-11-20T16:50:50;1.70;99.90
74934;DHT22;63499;53.232;7.492;2022-11-20T16:53:17;1.70;99.90
74934;DHT22;63499;53.232;7.492;2022-11-20T16:55:43;1.70;99.90
74934;DHT22;63499;53.232;7.492;2022-11-20T16:58:10;1.70;99.90
74934;DHT22;63499;53.232;7.492;2022-11-20T17:00:40;1.70;99.90
74934;DHT22;63499;53.232;7.492;2022-11-20T17:03:08;1.60;99.90
74934;DHT22;63499;53.232;7.492;2022-11-20T17:05:35;1.60;99.90
74934;DHT22;63499;53.232;7.492;2022-11-20T17:08:01;1.70;99.90
74934;DHT22;63499;53.232;7.492;2022-11-20T17:10:28;1.70;99.90
74934;DHT22;63499;53.232;7.492;2022-11-20T17:12:54;1.70;99.90
74934;DHT22;63499;53.232;7.492;2022-11-20T17:15:20;1.60;99.90
74934;DHT22;63499;53.232;7.492;2022-11-20T17:17:46;1.60;99.90
74934;DHT22;63499;53.232;7.492;2022-11-20T17:20:12;1.60;99.90
74934;DHT22;63499;53.232;7.492;2022-11-20T17:22:39;1.60;99.90
74934;DHT22;63499;53.232;7.492;2022-11-20T17:25:05;1.60;99.90
74934;DHT22;63499;53.232;7.492;2022-11-20T17:27:31;1.50;99.90
74934;DHT22;63499;53.232;7.492;2022-11-20T17:29:58;1.50;99.90
74934;DHT22;63499;53.232;7.492;2022-11-20T17:32:26;1.40;99.90
74934;DHT22;63499;53.232;7.492;2022-11-20T17:34:53;1.40;99.90
74934;DHT22;63499;53.232;7.492;2022-11-20T17:37:19;1.40;99.90
74934;DHT22;63499;53.232;7.492;2022-11-20T17:39:45;1.30;99.90
74934;DHT22;63499;53.232;7.492;2022-11-20T17:42:13;1.20;99.90
74934;DHT22;63499;53.232;7.492;2022-11-20T17:44:52;1.20;99.90
74934;DHT22;63499;53.232;7.492;2022-11-20T17:47:18;1.20;99.90
74934;DHT22;63499;53.232;7.492;2022-11-20T17:49:47;1.10;99.90
74934;DHT22;63499;53.232;7.492;2022-11-20T17:52:13;1.20;99.90
74934;DHT22;63499;53.232;7.492;2022-11-20T17:54:39;1.10;99.90
74934;DHT22;63499;53.232;7.492;2022-11-20T17:57:07;1.10;99.90
74934;DHT22;63499;53.232;7.492;2022-11-20T17:59:52;1.10;99.90
74934;DHT22;63499;53.232;7.492;2022-11-20T18:02:19;1.00;99.90
74934;DHT22;63499;53.232;7.492;2022-11-20T18:04:45;1.00;99.90
74934;DHT22;63499;53.232;7.492;2022-11-20T18:07:21;1.00;99.90
74934;DHT22;63499;53.232;7.492;2022-11-20T18:09:47;1.00;99.90
74934;DHT22;63499;53.232;7.492;2022-11-20T18:12:13;1.00;99.90
74934;DHT22;63499;53.232;7.492;2022-11-20T18:14:39;1.00;99.90
74934;DHT22;63499;53.232;7.492;2022-11-20T18:17:09;1.00;99.90
74934;DHT22;63499;53.232;7.492;2022-11-20T18:19:37;1.00;99.90
74934;DHT22;63499;53.232;7.492;2022-11-20T18:22:03;1.00;99.90
74934;DHT22;63499;53.232;7.492;2022-11-20T18:24:30;1.00;99.90